Outage due to equipment failure. Site will not be transmitting information for the foreseeable future.

Latest Weather Observations for Rundle Island

IDQ60801

Issued at 6:35 pm EST Thursday 28 August 2014 (issued every 30 minutes, with the page automatically refreshed every 10 minutes)

About weather observations | Map of weather stations | Latest weather observations for QLD | Other Formats
Station Details ID: 039322 Name: RUNDLE ISLAND Lat: -23.53 Lon: 151.28 Height: 19.8 m
Data from the previous 72 hours. | See also: Recent months at Rundle Island
Date/Time
EST
Temp
°C
App
Temp
°C
Dew
Point
Rel
Hum
%
Delta-T
°C
Wind Press
QNH
hPa
Press
MSL
hPa
Rain
since 9 am
mm
Dir
 
Spd
km/h
Gust
km/h
Spd
kts
Gust
kts
28/06:30pm 19.2 - - - - ENE 11 13 6 7 1018.0 1017.9 -
28/06:00pm 19.3 - - - - NNE 7 9 4 5 1017.7 1017.6 -
28/05:30pm 19.7 - - - - NNE 9 13 5 7 1017.2 1017.1 -
28/05:00pm 19.6 - - - - N 11 15 6 8 1017.1 1017.0 -
28/04:30pm 19.9 - - - - NNE 15 17 8 9 1016.7 1016.6 -
28/04:00pm 19.8 - - - - N 15 19 8 10 1016.3 1016.2 -
28/03:30pm 19.6 - - - - N 19 20 10 11 1016.0 1015.9 -
28/03:00pm 20.4 - - - - ENE 17 19 9 10 1015.8 1015.7 -
28/02:30pm 20.6 - - - - ENE 15 17 8 9 1015.9 1015.8 -
28/02:00pm 20.4 - - - - E 11 13 6 7 1015.7 1015.6 -
28/01:30pm 21.6 - - - - E 6 6 3 3 1015.9 1015.8 -
28/01:00pm 21.5 - - - - CALM 0 6 0 3 1016.1 1016.0 -
28/12:30pm 21.2 - - - - SE 6 7 3 4 1016.5 1016.4 -
28/12:00pm 19.6 - - - - SE 11 13 6 7 1017.1 1017.0 -
28/11:30am 19.4 - - - - SSE 17 20 9 11 1017.5 1017.4 -
28/11:00am 19.0 - - - - S 26 30 14 16 1017.6 1017.5 -
28/10:30am 18.9 - - - - SSE 17 20 9 11 1017.9 1017.8 -
28/10:00am 18.6 - - - - S 15 20 8 11 1018.1 1018.0 -
28/09:30am 18.3 - - - - S 11 17 6 9 1018.3 1018.2 -
28/09:00am 17.1 - - - - SW 9 17 5 9 1018.4 1018.3 -
28/08:30am 16.4 - - - - WSW 11 15 6 8 1018.2 1018.1 -
28/08:00am 15.7 - - - - WSW 13 19 7 10 1018.1 1018.0 -
28/07:30am 15.3 - - - - W 9 15 5 8 1017.9 1017.8 -
28/07:00am 14.8 - - - - WNW 11 13 6 7 1017.7 1017.6 -
28/06:30am 14.6 - - - - W 11 15 6 8 1017.4 1017.3 -
28/06:00am 14.5 - - - - W 13 19 7 10 1017.2 1017.1 -
28/05:30am 15.0 - - - - WSW 17 20 9 11 1016.8 1016.7 -
28/05:00am 15.0 - - - - W 15 20 8 11 1016.4 1016.3 -
28/04:30am 15.4 - - - - WSW 15 19 8 10 1016.3 1016.2 -
28/04:00am 15.7 - - - - W 13 17 7 9 1016.4 1016.3 -
28/03:30am 16.0 - - - - W 15 19 8 10 1016.3 1016.2 -
28/03:00am 16.4 - - - - WSW 20 28 11 15 1016.3 1016.2 -
28/02:30am 16.2 - - - - WSW 17 20 9 11 1016.5 1016.4 -
28/02:00am 16.7 - - - - SW 19 24 10 13 1016.7 1016.6 -
28/01:30am 17.1 - - - - SW 24 30 13 16 1017.0 1016.9 -
28/01:00am 17.0 - - - - WSW 17 24 9 13 1016.9 1016.8 -
28/12:30am 18.0 - - - - SW 20 26 11 14 1016.8 1016.7 -
28/12:00am 18.4 - - - - SSW 28 35 15 19 1016.8 1016.7 -
 
Date/Time
EST
Temp
°C
App
Temp
°C
Dew
Point
Rel
Hum
%
Delta-T
°C
Wind Press
QNH
hPa
Press
MSL
hPa
Rain
since 9 am
mm
Dir
 
Spd
km/h
Gust
km/h
Spd
kts
Gust
kts
27/11:30pm 18.5 - - - - SW 19 26 10 14 1017.0 1016.9 -
27/11:00pm 19.1 - - - - SW 19 24 10 13 1016.7 1016.6 -
27/10:30pm 19.2 - - - - SW 13 15 7 8 1016.7 1016.6 -
27/10:00pm 18.9 - - - - SW 11 13 6 7 1016.7 1016.6 -
27/09:30pm 19.2 - - - - SW 13 15 7 8 1016.7 1016.6 -
27/09:00pm 19.8 - - - - SW 19 22 10 12 1016.6 1016.5 -
27/08:30pm 19.7 - - - - SW 15 19 8 10 1016.4 1016.3 -
27/08:00pm 20.1 - - - - SW 13 17 7 9 1016.2 1016.1 -
27/07:30pm 20.2 - - - - W 9 11 5 6 1015.9 1015.8 -
27/07:00pm 20.1 - - - - NW 7 9 4 5 1015.3 1015.2 -
27/06:30pm 20.4 - - - - NW 11 15 6 8 1014.8 1014.7 -
27/06:00pm 21.6 - - - - W 17 20 9 11 1014.3 1014.2 -
27/05:30pm 22.3 - - - - WSW 26 32 14 17 1013.9 1013.8 -
27/05:00pm 21.6 - - - - WNW 15 19 8 10 1013.6 1013.5 -
27/04:30pm 21.2 - - - - NW 24 30 13 16 1013.0 1012.9 -
27/04:00pm 21.0 - - - - NNW 26 30 14 16 1012.7 1012.6 -
27/03:30pm 22.1 - - - - NNW 22 30 12 16 1012.7 1012.6 -
27/03:00pm 20.6 - - - - NNW 24 30 13 16 1012.8 1012.7 -
27/02:30pm 20.1 - - - - NNW 30 37 16 20 1012.8 1012.7 -
27/02:00pm 20.2 - - - - NNW 30 33 16 18 1013.1 1013.0 -
27/01:30pm 19.7 - - - - N 30 32 16 17 1013.4 1013.3 -
27/01:00pm 20.1 - - - - NNW 24 26 13 14 1014.0 1013.9 -
27/12:30pm 19.9 - - - - NNW 24 26 13 14 1014.5 1014.4 -
27/12:00pm 19.9 - - - - NNW 20 24 11 13 1014.9 1014.8 -
27/11:30am 19.4 - - - - NNW 17 19 9 10 1015.5 1015.4 -
27/11:00am 19.1 - - - - NNW 17 20 9 11 1015.9 1015.8 -
27/10:30am 18.6 - - - - NNW 15 19 8 10 1016.4 1016.3 -
27/10:00am 18.4 - - - - NW 13 19 7 10 1016.7 1016.6 -
27/09:30am 18.1 - - - - NW 13 17 7 9 1016.9 1016.8 -
27/09:00am 18.1 - - - - NW 11 13 6 7 1016.6 1016.5 -
27/08:30am 17.9 - - - - NW 11 11 6 6 1016.6 1016.5 -
27/08:00am 17.7 - - - - NW 6 7 3 4 1016.4 1016.3 -
27/07:30am 17.4 - - - - W 4 6 2 3 1016.1 1016.0 -
27/07:00am 17.4 - - - - WSW 6 7 3 4 1016.0 1015.9 -
27/06:30am 17.3 - - - - WSW 6 7 3 4 1015.8 1015.7 -
27/06:00am 17.4 - - - - W 7 11 4 6 1015.7 1015.6 -
27/05:30am 17.5 - - - - WNW 7 9 4 5 1015.3 1015.2 -
27/05:00am 17.2 - - - - WSW 6 6 3 3 1015.1 1015.0 -
27/04:30am 17.0 - - - - WSW 6 9 3 5 1014.9 1014.8 -
27/04:00am 17.1 - - - - WSW 13 15 7 8 1015.0 1014.9 -
27/03:30am 17.0 - - - - WSW 13 15 7 8 1015.1 1015.0 -
27/03:00am 17.2 - - - - SW 15 20 8 11 1015.1 1015.0 -
27/02:30am 18.5 - - - - CALM 0 0 0 0 1015.0 1014.9 -
27/02:00am 18.5 - - - - CALM 0 0 0 0 1015.2 1015.1 -
27/01:30am 18.4 - - - - CALM 0 0 0 0 1015.7 1015.6 -
27/01:00am 18.5 - - - - CALM 0 0 0 0 1016.2 1016.1 -
27/12:30am 18.5 - - - - SSW 4 4 2 2 1016.3 1016.2 -
27/12:00am 18.8 - - - - CALM 0 7 0 4 1016.5 1016.4 -
 
Date/Time
EST
Temp
°C
App
Temp
°C
Dew
Point
Rel
Hum
%
Delta-T
°C
Wind Press
QNH
hPa
Press
MSL
hPa
Rain
since 9 am
mm
Dir
 
Spd
km/h
Gust
km/h
Spd
kts
Gust
kts
26/11:30pm 19.0 - - - - SSE 2 6 1 3 1016.6 1016.5 -
26/11:00pm 19.2 - - - - N 4 4 2 2 1016.6 1016.5 -
26/10:30pm 19.6 - - - - NNW 4 6 2 3 1016.7 1016.6 -
26/10:00pm 19.7 - - - - NNW 7 7 4 4 1016.6 1016.5 -
26/09:30pm 19.4 - - - - NW 6 7 3 4 1016.7 1016.6 -
26/09:00pm 19.5 - - - - WNW 6 7 3 4 1016.7 1016.6 -
26/08:30pm 20.2 - - - - N 7 9 4 5 1016.5 1016.4 -
26/08:00pm 20.0 - - - - NNE 9 11 5 6 1016.1 1016.0 -
26/07:30pm 19.9 - - - - NE 15 17 8 9 1015.6 1015.5 -
26/07:00pm 20.0 - - - - NE 19 20 10 11 1015.3 1015.2 -
26/06:30pm 20.1 - - - - NE 19 22 10 12 1014.8 1014.7 -
26/06:00pm 20.0 - - - - NE 22 24 12 13 1014.5 1014.4 -
26/05:30pm 19.9 - - - - NE 20 22 11 12 1014.3 1014.2 -
26/05:00pm 19.9 - - - - NE 19 20 10 11 1014.3 1014.2 -
26/04:30pm 20.6 - - - - NNE 20 22 11 12 1014.2 1014.1 -
26/04:00pm 20.4 - - - - NNE 20 22 11 12 1014.1 1014.0 -
26/03:30pm 20.9 - - - - NNE 17 20 9 11 1014.2 1014.1 -
26/03:00pm 20.7 - - - - NNE 15 17 8 9 1014.3 1014.2 -
26/02:30pm 20.5 - - - - NNE 15 17 8 9 1014.5 1014.4 -
26/02:00pm 20.5 - - - - NNE 13 15 7 8 1014.9 1014.8 -
26/01:30pm 21.9 - - - - NNE 11 11 6 6 1015.3 1015.2 -
26/01:00pm 20.6 - - - - NE 11 15 6 8 1015.6 1015.5 -
26/12:30pm 20.4 - - - - E 15 17 8 9 1016.0 1015.9 -
26/12:00pm 20.8 - - - - E 11 13 6 7 1016.5 1016.4 -
26/11:30am 20.9 - - - - ESE 9 11 5 6 1017.0 1016.9 -
26/11:00am 20.0 - - - - SE 9 11 5 6 1017.7 1017.6 -
26/10:30am 19.6 - - - - SSE 9 11 5 6 1018.0 1017.9 -
26/10:00am 19.4 - - - - SSE 9 11 5 6 1018.3 1018.2 -
26/09:30am 19.5 - - - - S 9 13 5 7 1018.5 1018.4 -
26/09:00am 18.9 - - - - S 9 11 5 6 1018.5 1018.4 -
26/08:30am 18.8 - - - - S 13 15 7 8 1018.4 1018.3 -
26/08:00am 18.7 - - - - S 11 17 6 9 1018.2 1018.1 -
26/07:30am 18.2 - - - - S 13 15 7 8 1017.9 1017.8 -
26/07:00am 17.9 - - - - S 15 19 8 10 1017.5 1017.4 -
26/06:30am 18.3 - - - - S 19 20 10 11 1017.2 1017.1 -
26/06:00am 18.0 - - - - S 20 24 11 13 1017.1 1017.0 -
26/05:30am 17.6 - - - - S 19 24 10 13 1016.8 1016.7 -
26/05:00am 17.4 - - - - S 19 22 10 12 1016.5 1016.4 -
26/04:30am 17.7 - - - - S 19 22 10 12 1016.4 1016.3 -
26/04:00am 18.1 - - - - S 22 26 12 14 1016.6 1016.5 -
26/03:30am 17.9 - - - - SSW 19 24 10 13 1016.8 1016.7 -
26/03:00am 18.9 - - - - SSE 28 33 15 18 1016.9 1016.8 -
26/02:30am 18.6 - - - - SSE 20 24 11 13 1017.0 1016.9 -
26/02:00am 18.7 - - - - SSE 20 22 11 12 1017.3 1017.2 -
26/01:30am 19.0 - - - - SSE 19 20 10 11 1017.6 1017.5 -
26/01:00am 19.3 - - - - SSE 24 28 13 15 1017.9 1017.8 -
26/12:30am 19.3 - - - - SSE 19 22 10 12 1018.1 1018.0 -
26/12:00am 19.5 - - - - SSE 19 20 10 11 1018.4 1018.3 -
 
Date/Time
EST
Temp
°C
App
Temp
°C
Dew
Point
Rel
Hum
%
Delta-T
°C
Wind Press
QNH
hPa
Press
MSL
hPa
Rain
since 9 am
mm
Dir
 
Spd
km/h
Gust
km/h
Spd
kts
Gust
kts
25/11:30pm 19.9 - - - - SE 20 24 11 13 1018.4 1018.3 -
25/11:00pm 20.1 - - - - SE 22 24 12 13 1018.5 1018.4 -
25/10:30pm 19.9 - - - - SE 19 24 10 13 1018.5 1018.4 -
25/10:00pm 19.8 - - - - SE 17 22 9 12 1018.6 1018.5 -
25/09:30pm 20.0 - - - - ESE 19 22 10 12 1018.7 1018.6 -
25/09:00pm 20.0 - - - - SE 17 20 9 11 1018.6 1018.5 -
25/08:30pm 19.9 - - - - ESE 17 20 9 11 1018.6 1018.5 -
25/08:00pm 20.1 - - - - ESE 19 22 10 12 1018.5 1018.4 -
25/07:30pm 19.9 - - - - ESE 17 20 9 11 1018.2 1018.1 -
25/07:00pm 20.0 - - - - ESE 13 15 7 8 1017.9 1017.8 -

Other Formats:

Comma delimited format used in spreadsheet applications
http://www.bom.gov.au/fwo/IDQ60801/IDQ60801.94378.axf

JavaScript Object Notation format (JSON) in row-major order
http://www.bom.gov.au/fwo/IDQ60801/IDQ60801.94378.json